Time;durP1;ratioP1;P1;durP2;ratioP2;P2;SDS_P1;SDS_P2;PMS_P1;PMS_P2;Temp;Humidity;BMP_temperature;BMP_pressure;BME280_temperature;BME280_humidity;BME280_pressure;Samples;Min_cycle;Max_cycle;Signal;HPM_P1;HPM_P2
2022/03/03 00:00:13;;;;;;;79.40;44.28;;;;;;;;;;6097065;23;20014;-77
2022/03/03 00:02:39;;;;;;;82.20;45.83;;;;;;;;;;6097135;23;20013;-77
2022/03/03 00:05:06;;;;;;;79.80;46.03;;;;;;;;;;6096978;23;20025;-77
2022/03/03 00:07:32;;;;;;;80.55;46.05;;;;;;;;;;6097178;23;20092;-77
2022/03/03 00:09:58;;;;;;;90.93;48.70;;;;;;;;;;6097046;23;20014;-77
2022/03/03 00:12:24;;;;;;;86.32;47.47;;;;;;;;;;6097126;23;20016;-77
2022/03/03 00:14:50;;;;;;;85.18;47.95;;;;;;;;;;6096689;23;20018;-77
2022/03/03 00:17:16;;;;;;;87.85;47.65;;;;;;;;;;6096995;23;20018;-77
2022/03/03 00:19:42;;;;;;;76.18;46.35;;;;;;;;;;6097210;23;20088;-77
2022/03/03 00:22:08;;;;;;;76.80;43.08;;;;;;;;;;6097060;23;20028;-77
2022/03/03 00:24:34;;;;;;;79.53;46.15;;;;;;;;;;6096848;23;20021;-77
2022/03/03 00:27:01;;;;;;;77.85;45.47;;;;;;;;;;6072907;23;20010;-77
2022/03/03 00:29:27;;;;;;;81.28;45.22;;;;;;;;;;6096614;23;20521;-77
2022/03/03 00:31:53;;;;;;;89.18;47.75;;;;;;;;;;6096122;23;20014;-77
2022/03/03 00:34:19;;;;;;;94.85;50.25;;;;;;;;;;6097006;23;20014;-77
2022/03/03 00:36:45;;;;;;;81.30;48.45;;;;;;;;;;6096745;23;20470;-77
2022/03/03 00:39:11;;;;;;;78.57;45.58;;;;;;;;;;6097090;23;20092;-77
2022/03/03 00:41:37;;;;;;;84.70;45.78;;;;;;;;;;6097799;23;20411;-77
2022/03/03 00:44:03;;;;;;;76.10;44.47;;;;;;;;;;6098838;23;20025;-77
2022/03/03 00:46:29;;;;;;;81.50;46.80;;;;;;;;;;6098853;23;20014;-77
2022/03/03 00:48:55;;;;;;;91.65;49.45;;;;;;;;;;6074659;23;20218;-77
2022/03/03 00:51:24;;;;;;;90.78;49.90;;;;;;;;;;6098605;23;20014;-77
2022/03/03 00:53:51;;;;;;;86.10;49.13;;;;;;;;;;6098620;23;20014;-77
2022/03/03 00:56:17;;;;;;;84.65;46.65;;;;;;;;;;6098552;23;20049;-77
2022/03/03 00:58:43;;;;;;;85.90;47.38;;;;;;;;;;6098574;23;20483;-77
2022/03/03 01:01:09;;;;;;;86.60;48.53;;;;;;;;;;6098419;23;20010;-77
2022/03/03 01:03:35;;;;;;;89.85;50.08;;;;;;;;;;6074059;23;20406;-77
2022/03/03 01:06:02;;;;;;;85.70;47.55;;;;;;;;;;6074497;23;20046;-77
2022/03/03 01:08:28;;;;;;;76.85;44.47;;;;;;;;;;6098412;23;20018;-77
2022/03/03 01:10:53;;;;;;;86.97;49.25;;;;;;;;;;6098342;23;20345;-77
2022/03/03 01:13:21;;;;;;;90.68;50.38;;;;;;;;;;6098244;23;20089;-77
2022/03/03 01:15:47;;;;;;;87.30;49.85;;;;;;;;;;6074450;23;20158;-77
2022/03/03 01:18:13;;;;;;;89.00;50.72;;;;;;;;;;6098391;23;20018;-77
2022/03/03 01:20:39;;;;;;;90.18;48.63;;;;;;;;;;6074505;23;20018;-77
2022/03/03 01:23:06;;;;;;;85.82;47.60;;;;;;;;;;6098328;23;20080;-77
2022/03/03 01:25:32;;;;;;;81.78;48.65;;;;;;;;;;6074300;23;20017;-77
2022/03/03 01:27:58;;;;;;;81.35;46.00;;;;;;;;;;6097919;23;20051;-77
2022/03/03 01:30:24;;;;;;;88.82;49.90;;;;;;;;;;6098288;23;20455;-77
2022/03/03 01:32:50;;;;;;;86.38;49.20;;;;;;;;;;6098256;23;20022;-77
2022/03/03 01:35:16;;;;;;;84.90;48.22;;;;;;;;;;6098238;23;20026;-77
2022/03/03 01:37:42;;;;;;;90.93;49.65;;;;;;;;;;6097988;23;20049;-77
2022/03/03 01:40:08;;;;;;;80.43;48.03;;;;;;;;;;6098093;23;20021;-77
2022/03/03 01:42:35;;;;;;;80.50;45.75;;;;;;;;;;6098160;23;20018;-77
2022/03/03 01:45:01;;;;;;;77.30;45.35;;;;;;;;;;6097991;23;20066;-77
2022/03/03 01:47:27;;;;;;;83.72;45.78;;;;;;;;;;6074205;23;20610;-77
2022/03/03 01:49:54;;;;;;;84.45;46.28;;;;;;;;;;6073963;23;20010;-77
2022/03/03 01:52:20;;;;;;;81.38;46.00;;;;;;;;;;6097612;23;20432;-77
2022/03/03 01:54:47;;;;;;;83.28;46.83;;;;;;;;;;6098130;23;20463;-78
2022/03/03 01:57:15;;;;;;;84.35;47.75;;;;;;;;;;6073788;23;20029;-78
2022/03/03 01:59:41;;;;;;;74.57;45.15;;;;;;;;;;6073721;23;20021;-77
2022/03/03 02:02:10;;;;;;;76.97;45.13;;;;;;;;;;6073887;23;20392;-77
2022/03/03 02:04:36;;;;;;;83.32;46.33;;;;;;;;;;6097910;23;20014;-77
2022/03/03 02:07:03;;;;;;;82.00;47.10;;;;;;;;;;6098057;23;20010;-77
2022/03/03 02:09:28;;;;;;;88.03;49.17;;;;;;;;;;6073945;23;20014;-77
2022/03/03 02:11:54;;;;;;;87.25;49.38;;;;;;;;;;6098002;23;20013;-77
2022/03/03 02:14:20;;;;;;;83.72;48.13;;;;;;;;;;6097949;23;20018;-77
2022/03/03 02:16:47;;;;;;;93.25;50.85;;;;;;;;;;6097839;23;20072;-77
2022/03/03 02:19:17;;;;;;;82.70;47.00;;;;;;;;;;6097901;23;20097;-77
2022/03/03 02:21:44;;;;;;;86.65;47.00;;;;;;;;;;6097363;23;20018;-77
2022/03/03 02:24:10;;;;;;;89.60;50.28;;;;;;;;;;6097605;23;20014;-77
2022/03/03 02:26:39;;;;;;;94.85;50.60;;;;;;;;;;6073842;23;20014;-77
2022/03/03 02:29:05;;;;;;;76.80;43.85;;;;;;;;;;6097546;23;20018;-78
2022/03/03 02:31:31;;;;;;;85.45;46.45;;;;;;;;;;6097681;23;20014;-77
2022/03/03 02:33:58;;;;;;;93.45;51.40;;;;;;;;;;6073018;23;20010;-77
2022/03/03 02:36:28;;;;;;;95.90;51.35;;;;;;;;;;6097653;23;20022;-77
2022/03/03 02:38:55;;;;;;;82.72;47.92;;;;;;;;;;6073689;23;20656;-78
2022/03/03 02:41:21;;;;;;;93.20;51.40;;;;;;;;;;6073535;23;20022;-77
2022/03/03 02:43:48;;;;;;;80.85;48.28;;;;;;;;;;6073565;23;20014;-77
2022/03/03 02:46:14;;;;;;;84.03;49.75;;;;;;;;;;6096742;23;20028;-77
2022/03/03 02:48:40;;;;;;;93.50;50.72;;;;;;;;;;6097589;23;20113;-77
2022/03/03 02:51:07;;;;;;;90.18;50.85;;;;;;;;;;6073463;23;20048;-77
2022/03/03 02:53:33;;;;;;;91.35;51.70;;;;;;;;;;6073674;23;20356;-77
2022/03/03 02:55:59;;;;;;;92.50;52.72;;;;;;;;;;6097424;23;20021;-77
2022/03/03 02:58:25;;;;;;;80.85;47.72;;;;;;;;;;6097832;23;20076;-77
2022/03/03 03:00:51;;;;;;;95.18;52.38;;;;;;;;;;6097418;23;20053;-77
2022/03/03 03:03:18;;;;;;;89.53;50.00;;;;;;;;;;6097074;23;20474;-77
2022/03/03 03:05:44;;;;;;;83.82;48.47;;;;;;;;;;6097100;23;20069;-77
2022/03/03 03:08:11;;;;;;;84.32;48.38;;;;;;;;;;6097466;23;20013;-77
2022/03/03 03:10:37;;;;;;;81.72;46.08;;;;;;;;;;6096991;23;20010;-77
2022/03/03 03:13:04;;;;;;;82.82;45.70;;;;;;;;;;6072966;23;20010;-77
2022/03/03 03:15:30;;;;;;;77.38;43.95;;;;;;;;;;6097194;23;20017;-77
2022/03/03 03:17:56;;;;;;;80.85;45.30;;;;;;;;;;6097344;23;20657;-77
2022/03/03 03:20:22;;;;;;;75.85;45.15;;;;;;;;;;6097025;23;20014;-77
2022/03/03 03:22:49;;;;;;;90.07;49.13;;;;;;;;;;6097240;23;20036;-77
2022/03/03 03:25:15;;;;;;;87.15;47.15;;;;;;;;;;6097124;23;20336;-77
2022/03/03 03:27:44;;;;;;;87.43;47.83;;;;;;;;;;6073060;23;20636;-77
2022/03/03 03:30:11;;;;;;;87.15;47.58;;;;;;;;;;6073527;23;20416;-77
2022/03/03 03:32:38;;;;;;;77.68;43.40;;;;;;;;;;6073154;23;20428;-77
2022/03/03 03:35:04;;;;;;;76.90;44.85;;;;;;;;;;6072906;23;20097;-77
2022/03/03 03:37:30;;;;;;;81.15;47.78;;;;;;;;;;6073242;23;20017;-77
2022/03/03 03:39:56;;;;;;;82.35;46.17;;;;;;;;;;6073050;23;20065;-77
2022/03/03 03:42:22;;;;;;;80.03;47.00;;;;;;;;;;6097055;23;20072;-77
2022/03/03 03:44:48;;;;;;;85.30;47.50;;;;;;;;;;6096870;23;20626;-77
2022/03/03 03:47:15;;;;;;;81.50;47.35;;;;;;;;;;6121540;23;20683;-77
2022/03/03 03:49:41;;;;;;;84.22;47.55;;;;;;;;;;6097149;23;20010;-77
2022/03/03 03:52:07;;;;;;;84.60;46.80;;;;;;;;;;6097074;23;20014;-77
2022/03/03 03:54:33;;;;;;;82.70;47.78;;;;;;;;;;6096873;23;20014;-77
2022/03/03 03:56:59;;;;;;;82.70;47.72;;;;;;;;;;6097153;23;20036;-77
2022/03/03 03:59:25;;;;;;;80.00;44.47;;;;;;;;;;6072950;23;20081;-77
2022/03/03 04:01:51;;;;;;;85.20;48.05;;;;;;;;;;6073140;23;20025;-77
2022/03/03 04:04:17;;;;;;;81.50;48.13;;;;;;;;;;6097085;23;20018;-77
2022/03/03 04:06:43;;;;;;;85.28;47.97;;;;;;;;;;6073073;23;20456;-77
2022/03/03 04:09:09;;;;;;;82.95;48.35;;;;;;;;;;6097080;23;20021;-77
2022/03/03 04:11:35;;;;;;;79.72;45.88;;;;;;;;;;6097060;23;20150;-77
2022/03/03 04:14:01;;;;;;;81.22;47.97;;;;;;;;;;6096887;23;20037;-77
2022/03/03 04:16:27;;;;;;;81.70;48.53;;;;;;;;;;6097690;23;20010;-76
2022/03/03 04:18:53;;;;;;;82.63;46.33;;;;;;;;;;6099191;23;20356;-77
2022/03/03 04:21:19;;;;;;;82.53;48.50;;;;;;;;;;6099237;23;20503;-76
2022/03/03 04:23:46;;;;;;;77.93;44.78;;;;;;;;;;6098693;23;20018;-76
2022/03/03 04:26:12;;;;;;;78.97;47.10;;;;;;;;;;6098758;23;20014;-77
2022/03/03 04:28:37;;;;;;;79.80;47.45;;;;;;;;;;6074836;23;20084;-76
2022/03/03 04:31:03;;;;;;;82.43;47.40;;;;;;;;;;6074764;23;20022;-76
2022/03/03 04:33:30;;;;;;;75.97;44.63;;;;;;;;;;6098329;23;20483;-77
2022/03/03 04:35:59;;;;;;;76.20;44.58;;;;;;;;;;6098509;23;20014;-77
2022/03/03 04:38:25;;;;;;;75.95;44.85;;;;;;;;;;6098768;23;20092;-77
2022/03/03 04:40:51;;;;;;;81.88;46.72;;;;;;;;;;6074739;23;20448;-77
2022/03/03 04:43:17;;;;;;;79.70;47.67;;;;;;;;;;6074878;23;20010;-76
2022/03/03 04:45:44;;;;;;;71.57;43.67;;;;;;;;;;6098617;23;20080;-77
2022/03/03 04:48:10;;;;;;;72.68;42.30;;;;;;;;;;6074679;23;20017;-76
2022/03/03 04:50:36;;;;;;;75.80;44.50;;;;;;;;;;6074931;23;20006;-76
2022/03/03 04:53:02;;;;;;;80.15;45.35;;;;;;;;;;6098830;23;20010;-77
2022/03/03 04:55:28;;;;;;;74.15;44.60;;;;;;;;;;6098891;23;20020;-77
2022/03/03 04:57:54;;;;;;;72.35;43.47;;;;;;;;;;6098933;23;20049;-76
2022/03/03 05:00:20;;;;;;;70.90;42.03;;;;;;;;;;6098733;23;20113;-76
2022/03/03 05:02:46;;;;;;;69.07;42.45;;;;;;;;;;6098711;23;20073;-76
2022/03/03 05:05:13;;;;;;;75.28;42.45;;;;;;;;;;6098586;23;20014;-76
2022/03/03 05:07:39;;;;;;;71.25;42.83;;;;;;;;;;6098285;23;20018;-76
2022/03/03 05:10:05;;;;;;;75.60;44.25;;;;;;;;;;6098490;23;20105;-76
2022/03/03 05:12:31;;;;;;;67.18;41.95;;;;;;;;;;6098562;23;20092;-76
2022/03/03 05:14:57;;;;;;;69.45;40.60;;;;;;;;;;6098874;23;20052;-76
2022/03/03 05:17:24;;;;;;;69.55;42.58;;;;;;;;;;6074502;23;20022;-76
2022/03/03 05:19:50;;;;;;;76.60;44.38;;;;;;;;;;6098588;23;20018;-76
2022/03/03 05:22:16;;;;;;;75.18;42.60;;;;;;;;;;6098419;23;20073;-76
2022/03/03 05:24:42;;;;;;;74.28;45.17;;;;;;;;;;6098219;23;20017;-76
2022/03/03 05:27:10;;;;;;;67.40;40.88;;;;;;;;;;6097854;23;20515;-76
2022/03/03 05:29:36;;;;;;;67.15;39.97;;;;;;;;;;6098155;23;20022;-76
2022/03/03 05:32:02;;;;;;;72.85;44.88;;;;;;;;;;6098307;23;20020;-76
2022/03/03 05:34:28;;;;;;;66.95;41.88;;;;;;;;;;6098354;23;20021;-77
2022/03/03 05:36:54;;;;;;;77.97;44.28;;;;;;;;;;6098405;23;20064;-77
2022/03/03 05:39:20;;;;;;;70.57;41.45;;;;;;;;;;6074539;23;20018;-76
2022/03/03 05:41:46;;;;;;;73.65;43.45;;;;;;;;;;6098051;23;20018;-76
2022/03/03 05:44:14;;;;;;;76.38;43.10;;;;;;;;;;6098226;23;20396;-77
2022/03/03 05:46:43;;;;;;;79.13;45.80;;;;;;;;;;6098285;23;20333;-76
2022/03/03 05:49:10;;;;;;;76.43;44.50;;;;;;;;;;6098122;23;20021;-76
2022/03/03 05:51:36;;;;;;;74.75;45.00;;;;;;;;;;6098467;23;20014;-77
2022/03/03 05:54:02;;;;;;;73.28;43.63;;;;;;;;;;6098106;23;20014;-77
2022/03/03 05:56:30;;;;;;;74.75;43.42;;;;;;;;;;6098038;23;20328;-76
2022/03/03 05:58:58;;;;;;;80.88;47.90;;;;;;;;;;6097795;23;20352;-76
2022/03/03 06:01:24;;;;;;;74.18;43.67;;;;;;;;;;6074072;23;20330;-76
2022/03/03 06:03:51;;;;;;;62.03;40.00;;;;;;;;;;6098038;23;20448;-76
2022/03/03 06:06:16;;;;;;;77.45;44.25;;;;;;;;;;6097825;23;20017;-76
2022/03/03 06:08:56;;;;;;;78.82;43.90;;;;;;;;;;6073922;23;20014;-76
2022/03/03 06:11:25;;;;;;;78.90;44.70;;;;;;;;;;6096948;23;20480;-76
2022/03/03 06:13:53;;;;;;;68.45;43.55;;;;;;;;;;6096882;23;20010;-77
2022/03/03 06:16:19;;;;;;;64.72;43.30;;;;;;;;;;6073833;23;20368;-76
2022/03/03 06:18:46;;;;;;;65.40;41.20;;;;;;;;;;6097927;23;20468;-77
2022/03/03 06:21:12;;;;;;;67.90;41.15;;;;;;;;;;6097667;23;20017;-76
2022/03/03 06:23:38;;;;;;;65.57;41.90;;;;;;;;;;6098051;23;20020;-76
2022/03/03 06:26:05;;;;;;;73.68;44.45;;;;;;;;;;6072948;23;20024;-76
2022/03/03 06:28:32;;;;;;;71.57;43.58;;;;;;;;;;6065127;23;20018;-76
2022/03/03 06:30:58;;;;;;;70.78;41.40;;;;;;;;;;6064671;23;20025;-76
2022/03/03 06:33:25;;;;;;;67.03;41.08;;;;;;;;;;6066336;23;20117;-76
2022/03/03 06:35:51;;;;;;;72.93;43.95;;;;;;;;;;6066083;23;20018;-76
2022/03/03 06:38:17;;;;;;;73.03;43.90;;;;;;;;;;6066375;23;20014;-76
2022/03/03 06:40:43;;;;;;;76.60;45.28;;;;;;;;;;6066639;23;20102;-76
2022/03/03 06:43:09;;;;;;;78.85;46.28;;;;;;;;;;6067050;23;20104;-76
2022/03/03 06:45:35;;;;;;;77.78;44.05;;;;;;;;;;6066570;23;20018;-76
2022/03/03 06:48:02;;;;;;;69.75;43.55;;;;;;;;;;6066129;23;20066;-76
2022/03/03 06:50:29;;;;;;;72.72;45.50;;;;;;;;;;6066304;23;20318;-77
2022/03/03 06:52:55;;;;;;;77.63;43.33;;;;;;;;;;6066475;23;20353;-76
2022/03/03 06:55:23;;;;;;;75.28;45.22;;;;;;;;;;6066614;23;20074;-76
2022/03/03 06:57:56;;;;;;;73.05;42.40;;;;;;;;;;6066607;23;20022;-76
2022/03/03 07:00:25;;;;;;;70.73;42.30;;;;;;;;;;6066198;23;20212;-76
2022/03/03 07:02:52;;;;;;;65.28;39.67;;;;;;;;;;6065770;23;20018;-76
2022/03/03 07:05:18;;;;;;;71.70;44.83;;;;;;;;;;6066465;23;20018;-76
2022/03/03 07:07:46;;;;;;;75.00;45.08;;;;;;;;;;6066218;23;20014;-76
2022/03/03 07:10:13;;;;;;;78.65;45.72;;;;;;;;;;6066238;23;20014;-75
2022/03/03 07:12:40;;;;;;;69.35;43.20;;;;;;;;;;6091750;23;20025;-75
2022/03/03 07:15:06;;;;;;;75.18;45.42;;;;;;;;;;6066568;23;20093;-75
2022/03/03 07:17:39;;;;;;;72.07;44.78;;;;;;;;;;6065676;23;20093;-76
2022/03/03 07:20:07;;;;;;;72.45;44.63;;;;;;;;;;6065841;23;20059;-76
2022/03/03 07:22:34;;;;;;;71.95;44.05;;;;;;;;;;6066822;23;20345;-76
2022/03/03 07:25:09;;;;;;;71.75;45.60;;;;;;;;;;6067129;23;20060;-76
2022/03/03 07:27:36;;;;;;;69.55;41.97;;;;;;;;;;6068329;23;20014;-76
2022/03/03 07:30:02;;;;;;;74.43;44.10;;;;;;;;;;6096055;23;20021;-76
2022/03/03 07:32:34;;;;;;;74.63;44.33;;;;;;;;;;6096759;23;20013;-76
2022/03/03 07:35:02;;;;;;;68.28;42.47;;;;;;;;;;6095162;23;20475;-76
2022/03/03 07:37:35;;;;;;;77.20;46.05;;;;;;;;;;6094979;23;20329;-76
2022/03/03 07:40:04;;;;;;;72.10;43.97;;;;;;;;;;6070787;23;20024;-76
2022/03/03 07:42:30;;;;;;;74.93;44.25;;;;;;;;;;6094870;23;20025;-75
2022/03/03 07:44:56;;;;;;;73.03;43.20;;;;;;;;;;6094164;23;20022;-76
2022/03/03 07:47:22;;;;;;;71.85;44.10;;;;;;;;;;6094562;23;20041;-75
2022/03/03 07:49:48;;;;;;;74.00;45.70;;;;;;;;;;6094883;23;20021;-76
2022/03/03 07:52:14;;;;;;;76.43;44.65;;;;;;;;;;6094312;23;20020;-76
2022/03/03 07:54:40;;;;;;;75.00;45.08;;;;;;;;;;6094473;23;20440;-76
2022/03/03 07:57:09;;;;;;;71.57;42.50;;;;;;;;;;6094328;23;20018;-76
2022/03/03 07:59:35;;;;;;;70.32;43.97;;;;;;;;;;6094166;23;20018;-76
2022/03/03 08:02:04;;;;;;;79.57;46.90;;;;;;;;;;6094892;23;20531;-76
2022/03/03 08:04:31;;;;;;;72.90;45.40;;;;;;;;;;6095630;23;20018;-76
2022/03/03 08:07:03;;;;;;;73.07;44.63;;;;;;;;;;6071632;23;20032;-76
2022/03/03 08:09:31;;;;;;;72.50;44.33;;;;;;;;;;6096574;23;20018;-76
2022/03/03 08:11:58;;;;;;;69.32;43.95;;;;;;;;;;6095000;23;20024;-77
2022/03/03 08:14:24;;;;;;;68.93;42.47;;;;;;;;;;6094593;23;20014;-77
2022/03/03 08:16:51;;;;;;;66.50;42.47;;;;;;;;;;6094602;23;20036;-77
2022/03/03 08:19:17;;;;;;;74.13;44.88;;;;;;;;;;6094171;23;20049;-77
2022/03/03 08:21:44;;;;;;;67.22;42.72;;;;;;;;;;6069889;23;20029;-77
2022/03/03 08:24:11;;;;;;;72.50;42.03;;;;;;;;;;6094511;23;20456;-76
2022/03/03 08:26:38;;;;;;;69.72;43.28;;;;;;;;;;6094388;23;20014;-77
2022/03/03 08:29:04;;;;;;;67.85;42.55;;;;;;;;;;6065186;23;20018;-77
2022/03/03 08:31:35;;;;;;;67.15;41.25;;;;;;;;;;6065535;23;20046;-77
2022/03/03 08:34:06;;;;;;;69.75;41.40;;;;;;;;;;6065234;23;20322;-78
2022/03/03 08:36:36;;;;;;;62.25;40.95;;;;;;;;;;6065865;23;20045;-78
2022/03/03 08:39:04;;;;;;;61.28;39.20;;;;;;;;;;6065085;23;20069;-78
2022/03/03 08:41:31;;;;;;;62.30;37.78;;;;;;;;;;6041164;23;20011;-77
2022/03/03 08:43:59;;;;;;;61.97;39.40;;;;;;;;;;6065249;23;20368;-77
2022/03/03 08:46:26;;;;;;;62.58;38.72;;;;;;;;;;6064916;23;20157;-77
2022/03/03 08:48:53;;;;;;;63.55;36.03;;;;;;;;;;6065296;23;20014;-79
2022/03/03 08:51:19;;;;;;;66.30;38.80;;;;;;;;;;6041330;23;20022;-78
2022/03/03 08:53:46;;;;;;;60.83;38.33;;;;;;;;;;6064742;23;20022;-79
2022/03/03 08:56:12;;;;;;;55.28;36.03;;;;;;;;;;6064852;23;20460;-78
2022/03/03 08:58:38;;;;;;;53.75;35.80;;;;;;;;;;6065098;23;20185;-78
2022/03/03 09:01:04;;;;;;;56.85;38.45;;;;;;;;;;6040415;23;20037;-79
2022/03/03 09:03:30;;;;;;;52.78;32.65;;;;;;;;;;6042867;23;20014;-79
2022/03/03 09:05:56;;;;;;;44.92;30.05;;;;;;;;;;6042735;23;20015;-77
2022/03/03 09:08:23;;;;;;;46.55;30.85;;;;;;;;;;6066585;23;20021;-79
2022/03/03 09:10:49;;;;;;;45.58;31.02;;;;;;;;;;6066849;23;20145;-79
2022/03/03 09:13:15;;;;;;;46.80;31.42;;;;;;;;;;6067159;23;20019;-79
2022/03/03 09:15:42;;;;;;;45.97;31.13;;;;;;;;;;6044732;23;20076;-79
2022/03/03 09:18:08;;;;;;;48.10;31.20;;;;;;;;;;6066937;23;20022;-79
2022/03/03 09:20:35;;;;;;;43.65;29.50;;;;;;;;;;6066746;23;20053;-78
2022/03/03 09:23:01;;;;;;;44.30;29.52;;;;;;;;;;6043241;23;20096;-79
2022/03/03 09:25:28;;;;;;;38.85;27.58;;;;;;;;;;6066360;23;20719;-79
2022/03/03 09:27:53;;;;;;;41.60;28.67;;;;;;;;;;6070816;23;20021;-77
2022/03/03 09:30:21;;;;;;;43.40;29.73;;;;;;;;;;6095892;23;20065;-78
2022/03/03 09:32:47;;;;;;;40.60;27.55;;;;;;;;;;6071782;23;20010;-79
2022/03/03 09:35:13;;;;;;;36.97;26.88;;;;;;;;;;6095753;23;20018;-79
2022/03/03 09:37:39;;;;;;;41.53;28.20;;;;;;;;;;6095524;23;20014;-79
2022/03/03 09:40:06;;;;;;;35.25;25.50;;;;;;;;;;6095316;23;20022;-79
2022/03/03 09:42:34;;;;;;;66.70;30.70;;;;;;;;;;6071399;23;20393;-79
2022/03/03 09:45:00;;;;;;;35.03;25.35;;;;;;;;;;6071225;23;20065;-79
2022/03/03 09:47:27;;;;;;;33.88;24.30;;;;;;;;;;6071577;23;20032;-78
2022/03/03 09:49:53;;;;;;;34.10;24.20;;;;;;;;;;6095431;23;20006;-79
2022/03/03 09:52:19;;;;;;;33.60;23.90;;;;;;;;;;6095434;23;20052;-79
2022/03/03 09:54:55;;;;;;;34.20;25.15;;;;;;;;;;6071260;23;20100;-79
2022/03/03 09:57:21;;;;;;;32.72;23.35;;;;;;;;;;6071703;23;20018;-80
2022/03/03 09:59:47;;;;;;;59.20;28.40;;;;;;;;;;6094896;23;20014;-78
2022/03/03 10:02:14;;;;;;;34.97;23.85;;;;;;;;;;6095097;23;20326;-79
2022/03/03 10:04:40;;;;;;;32.85;24.17;;;;;;;;;;6071374;23;20464;-78
2022/03/03 10:07:07;;;;;;;31.23;22.98;;;;;;;;;;6071091;23;20077;-79
2022/03/03 10:09:59;;;;;;;29.27;21.02;;;;;;;;;;6094963;23;20018;-79
2022/03/03 10:12:22;;;;;;;30.58;22.75;;;;;;;;;;6095271;23;20014;-78
2022/03/03 10:14:48;;;;;;;29.30;21.88;;;;;;;;;;6094600;23;20073;-78
2022/03/03 10:17:15;;;;;;;28.80;22.00;;;;;;;;;;6095167;23;20441;-81
2022/03/03 10:19:54;;;;;;;29.17;22.33;;;;;;;;;;6094797;23;20101;-79
2022/03/03 10:22:39;;;;;;;29.35;22.17;;;;;;;;;;6071177;23;20018;-80
2022/03/03 10:25:05;;;;;;;;;;;;;;;;;;6094874;23;20060;-80
2022/03/03 10:27:33;;;;;;;27.95;21.10;;;;;;;;;;6119147;23;19912;-80
2022/03/03 10:30:01;;;;;;;26.00;20.00;;;;;;;;;;6094138;23;20021;-79
2022/03/03 10:32:27;;;;;;;27.45;21.40;;;;;;;;;;6094234;23;20079;-80
2022/03/03 10:34:53;;;;;;;27.13;21.17;;;;;;;;;;6070113;23;20045;-81
2022/03/03 10:37:23;;;;;;;26.35;20.88;;;;;;;;;;6070583;23;20020;-78
2022/03/03 10:40:00;;;;;;;27.25;20.48;;;;;;;;;;6094488;23;20075;-80
2022/03/03 10:42:26;;;;;;;25.38;20.80;;;;;;;;;;6094440;23;20050;-81
2022/03/03 10:45:07;;;;;;;24.65;20.90;;;;;;;;;;6094235;23;20022;-80
2022/03/03 10:47:33;;;;;;;26.58;21.38;;;;;;;;;;6070856;23;20392;-80
2022/03/03 10:50:00;;;;;;;25.10;20.02;;;;;;;;;;6070204;23;20010;-80
2022/03/03 10:52:28;;;;;;;28.00;21.08;;;;;;;;;;6094450;23;20013;-79
2022/03/03 10:54:56;;;;;;;28.05;21.27;;;;;;;;;;6094544;23;20025;-81
2022/03/03 10:57:40;;;;;;;23.60;20.65;;;;;;;;;;6094008;23;20075;-80
2022/03/03 11:00:09;;;;;;;25.40;19.73;;;;;;;;;;6096657;23;20412;-81
2022/03/03 11:02:35;;;;;;;25.80;20.42;;;;;;;;;;6072763;23;20021;-81
2022/03/03 11:05:02;;;;;;;25.70;21.10;;;;;;;;;;6073204;23;20014;-81
2022/03/03 11:07:28;;;;;;;26.63;21.40;;;;;;;;;;6096314;23;20010;-82
2022/03/03 11:09:54;;;;;;;25.85;20.80;;;;;;;;;;6094156;23;20348;-80
2022/03/03 11:12:20;;;;;;;25.65;20.27;;;;;;;;;;6069690;23;20016;-81
2022/03/03 11:14:47;;;;;;;26.27;20.23;;;;;;;;;;6070100;23;20499;-81
2022/03/03 11:17:13;;;;;;;25.00;20.13;;;;;;;;;;6094234;23;20014;-81
2022/03/03 11:19:40;;;;;;;24.77;20.98;;;;;;;;;;6094070;23;20333;-81
2022/03/03 11:22:06;;;;;;;24.65;20.25;;;;;;;;;;6069982;23;20025;-80
2022/03/03 11:24:34;;;;;;;25.80;20.55;;;;;;;;;;6094278;23;20014;-80
2022/03/03 11:27:01;;;;;;;23.67;20.45;;;;;;;;;;6094311;23;20527;-80
2022/03/03 11:29:27;;;;;;;27.05;22.25;;;;;;;;;;6093945;23;20021;-80
2022/03/03 11:32:00;;;;;;;29.40;22.30;;;;;;;;;;6093869;23;20069;-80
2022/03/03 11:34:32;;;;;;;27.20;22.35;;;;;;;;;;6069861;23;20029;-81
2022/03/03 11:37:06;;;;;;;25.65;21.85;;;;;;;;;;6094363;23;20415;-80
2022/03/03 11:39:37;;;;;;;27.08;21.73;;;;;;;;;;6118815;23;20089;-80
2022/03/03 11:42:16;;;;;;;25.10;21.25;;;;;;;;;;6070799;23;20014;-79
2022/03/03 11:44:42;;;;;;;26.27;21.77;;;;;;;;;;6093939;23;20036;-79
2022/03/03 11:47:38;;;;;;;25.42;20.15;;;;;;;;;;6094399;23;20449;-81
2022/03/03 11:50:04;;;;;;;;;;;;;;;;;;6045237;23;20014;-80
2022/03/03 11:52:30;;;;;;;24.90;20.73;;;;;;;;;;6119058;23;19963;-80
2022/03/03 11:54:59;;;;;;;25.42;22.23;;;;;;;;;;6094208;23;20018;-80
2022/03/03 11:57:28;;;;;;;24.42;21.33;;;;;;;;;;6094369;23;20018;-80
2022/03/03 12:00:00;;;;;;;24.60;20.52;;;;;;;;;;6094430;23;20014;-80
2022/03/03 12:02:30;;;;;;;23.27;19.33;;;;;;;;;;6070277;23;20405;-79
2022/03/03 12:05:16;;;;;;;23.58;19.42;;;;;;;;;;6092953;23;20025;-79
2022/03/03 12:07:46;;;;;;;23.67;20.02;;;;;;;;;;6083333;23;20064;-78
2022/03/03 12:10:18;;;;;;;24.10;20.02;;;;;;;;;;6093643;23;20010;-81
2022/03/03 12:12:44;;;;;;;22.73;19.20;;;;;;;;;;6070069;23;20084;-79
2022/03/03 12:15:10;;;;;;;22.50;18.52;;;;;;;;;;6094108;23;20052;-80
2022/03/03 12:17:39;;;;;;;24.73;19.48;;;;;;;;;;6094229;23;20106;-80
2022/03/03 12:20:24;;;;;;;24.10;18.52;;;;;;;;;;6094355;23;20025;-80
2022/03/03 12:22:59;;;;;;;24.17;19.45;;;;;;;;;;6070465;23;20340;-78
2022/03/03 12:25:44;;;;;;;25.00;20.70;;;;;;;;;;6070238;23;20029;-81
2022/03/03 12:28:09;;;;;;;;;;;;;;;;;;6070760;23;20018;-78
2022/03/03 12:30:43;;;;;;;25.88;21.45;;;;;;;;;;6094330;23;19923;-78
2022/03/03 12:33:09;;;;;;;25.83;20.07;;;;;;;;;;6094664;23;20021;-79
2022/03/03 12:35:36;;;;;;;24.65;19.40;;;;;;;;;;6094247;23;20575;-79
2022/03/03 12:38:02;;;;;;;25.95;20.55;;;;;;;;;;6071687;23;20022;-78
2022/03/03 12:40:29;;;;;;;23.65;19.27;;;;;;;;;;6096423;23;20065;-79
2022/03/03 12:42:56;;;;;;;22.15;17.15;;;;;;;;;;6072379;23;20052;-78
2022/03/03 12:45:22;;;;;;;24.05;18.63;;;;;;;;;;6096029;23;20025;-78
2022/03/03 12:47:49;;;;;;;24.75;19.45;;;;;;;;;;6071792;23;20021;-79
2022/03/03 12:50:29;;;;;;;22.25;17.13;;;;;;;;;;6096870;23;20459;-79
2022/03/03 12:52:58;;;;;;;23.23;17.77;;;;;;;;;;6096155;23;20024;-80
2022/03/03 12:55:44;;;;;;;26.85;20.85;;;;;;;;;;6096330;23;20445;-79
2022/03/03 12:58:11;;;;;;;24.58;18.75;;;;;;;;;;6071990;23;20108;-79
2022/03/03 13:00:38;;;;;;;22.42;18.20;;;;;;;;;;6095661;23;20021;-79
2022/03/03 13:03:04;;;;;;;23.42;17.95;;;;;;;;;;6096094;23;20024;-79
2022/03/03 13:05:32;;;;;;;24.52;18.63;;;;;;;;;;6096188;23;20014;-79
2022/03/03 13:07:58;;;;;;;23.13;17.73;;;;;;;;;;6096507;23;20010;-78
2022/03/03 13:10:24;;;;;;;23.25;18.08;;;;;;;;;;6096198;23;20017;-78
2022/03/03 13:12:53;;;;;;;22.23;17.00;;;;;;;;;;6071884;23;20033;-80
2022/03/03 13:15:26;;;;;;;23.67;17.75;;;;;;;;;;6071881;23;20018;-79
2022/03/03 13:17:57;;;;;;;21.35;15.98;;;;;;;;;;6095741;23;20300;-77
2022/03/03 13:20:23;;;;;;;22.70;18.27;;;;;;;;;;6095494;23;20623;-80
2022/03/03 13:22:49;;;;;;;21.85;16.23;;;;;;;;;;6072231;23;20024;-78
2022/03/03 13:25:19;;;;;;;21.05;16.50;;;;;;;;;;6097809;23;20018;-79
2022/03/03 13:27:46;;;;;;;21.08;16.60;;;;;;;;;;6097069;23;20088;-80
2022/03/03 13:30:12;;;;;;;21.52;17.00;;;;;;;;;;6097254;23;20065;-80
2022/03/03 13:32:45;;;;;;;22.60;17.17;;;;;;;;;;6097963;23;20014;-77
2022/03/03 13:35:12;;;;;;;21.63;17.52;;;;;;;;;;6098568;23;20353;-78
2022/03/03 13:37:38;;;;;;;23.42;17.35;;;;;;;;;;6074239;23;20022;-79
2022/03/03 13:40:24;;;;;;;24.35;18.17;;;;;;;;;;6072603;23;20044;-79
2022/03/03 13:42:57;;;;;;;23.40;17.42;;;;;;;;;;6095129;23;20483;-79
2022/03/03 13:45:24;;;;;;;25.70;18.10;;;;;;;;;;6096963;23;20025;-79
2022/03/03 13:47:59;;;;;;;25.55;19.17;;;;;;;;;;6095608;23;20044;-79
2022/03/03 13:50:25;;;;;;;25.08;18.88;;;;;;;;;;6095378;23;20014;-79
2022/03/03 13:52:51;;;;;;;25.90;18.33;;;;;;;;;;6095607;23;20038;-78
2022/03/03 13:55:18;;;;;;;26.30;19.35;;;;;;;;;;6095600;23;20328;-79
2022/03/03 13:57:54;;;;;;;25.30;18.98;;;;;;;;;;6095338;23;20025;-80
2022/03/03 14:00:22;;;;;;;25.20;18.30;;;;;;;;;;6095455;23;20459;-78
2022/03/03 14:03:12;;;;;;;23.67;18.50;;;;;;;;;;6095183;23;20014;-79
2022/03/03 14:05:52;;;;;;;24.35;17.88;;;;;;;;;;6063621;23;20025;-78
2022/03/03 14:08:25;;;;;;;23.98;18.00;;;;;;;;;;6095428;23;20053;-79
2022/03/03 14:10:52;;;;;;;25.00;17.70;;;;;;;;;;6071660;23;20014;-78
2022/03/03 14:13:19;;;;;;;23.65;18.08;;;;;;;;;;6071404;23;20014;-77
2022/03/03 14:15:46;;;;;;;24.90;17.67;;;;;;;;;;6094791;23;20185;-78
2022/03/03 14:18:14;;;;;;;26.55;18.77;;;;;;;;;;6093784;23;20136;-79
2022/03/03 14:20:40;;;;;;;22.70;17.35;;;;;;;;;;6094380;23;20072;-77